Time;durP1;ratioP1;P1;durP2;ratioP2;P2;SDS_P1;SDS_P2;PMS_P1;PMS_P2;Temp;Humidity;BMP_temperature;BMP_pressure;BME280_temperature;BME280_humidity;BME280_pressure;Samples;Min_cycle;Max_cycle;Signal;HPM_P1;HPM_P2
2023/05/09 00:02:59;;;;;;;22.73;11.30;;;;;;;;;;10268591;28;20031;-81
2023/05/09 00:08:00;;;;;;;23.07;11.70;;;;;;;;;;10285494;28;20041;-80
2023/05/09 00:13:01;;;;;;;23.30;10.43;;;;;;;;;;10286533;28;20039;-79
2023/05/09 00:18:02;;;;;;;24.27;10.60;;;;;;;;;;10284626;28;20027;-81
2023/05/09 00:23:05;;;;;;;15.73;9.67;;;;;;;;;;10278485;28;20082;-80
2023/05/09 00:28:06;;;;;;;20.43;10.83;;;;;;;;;;10284867;28;20602;-80
2023/05/09 00:33:07;;;;;;;20.03;9.80;;;;;;;;;;10285240;28;20519;-80
2023/05/09 00:38:10;;;;;;;21.23;10.60;;;;;;;;;;10277393;28;20027;-80
2023/05/09 00:43:11;;;;;;;22.83;10.97;;;;;;;;;;10284848;28;20035;-80
2023/05/09 00:48:12;;;;;;;20.97;10.67;;;;;;;;;;10284285;28;20034;-80
2023/05/09 00:53:13;;;;;;;20.53;11.93;;;;;;;;;;10281793;28;20118;-80
2023/05/09 00:58:15;;;;;;;22.47;11.47;;;;;;;;;;10266542;28;20051;-80
2023/05/09 01:03:17;;;;;;;21.90;11.10;;;;;;;;;;10271182;28;20157;-80
2023/05/09 01:08:34;;;;;;;20.73;11.37;;;;;;;;;;10263979;28;20405;-80
2023/05/09 01:13:53;;;;;;;22.07;11.00;;;;;;;;;;10282455;28;20043;-80
2023/05/09 01:19:00;;;;;;;16.47;10.47;;;;;;;;;;10270765;28;20546;-80
2023/05/09 01:24:12;;;;;;;19.93;10.93;;;;;;;;;;10278378;28;20607;-80
2023/05/09 01:29:22;;;;;;;19.00;10.30;;;;;;;;;;10281806;28;20094;-80
2023/05/09 01:34:26;;;;;;;17.63;10.17;;;;;;;;;;10263327;28;20051;-79
2023/05/09 01:39:27;;;;;;;19.37;11.13;;;;;;;;;;10276776;28;20030;-80
2023/05/09 01:44:35;;;;;;;17.17;9.77;;;;;;;;;;10279188;28;20035;-80
2023/05/09 01:49:37;;;;;;;20.00;9.77;;;;;;;;;;10263584;28;20133;-80
2023/05/09 01:54:39;;;;;;;16.70;9.13;;;;;;;;;;10275144;28;20038;-80
2023/05/09 01:59:44;;;;;;;20.17;10.33;;;;;;;;;;10281675;28;20054;-80
2023/05/09 02:04:46;;;;;;;18.42;10.30;;;;;;;;;;10278928;28;20053;-80
2023/05/09 02:09:47;;;;;;;21.23;10.10;;;;;;;;;;10276300;28;20511;-80
2023/05/09 02:14:48;;;;;;;18.23;10.07;;;;;;;;;;10280822;28;20168;-80
2023/05/09 02:19:49;;;;;;;20.43;11.00;;;;;;;;;;10280527;28;20143;-80
2023/05/09 02:24:50;;;;;;;20.53;10.57;;;;;;;;;;10279517;28;20054;-80
2023/05/09 02:29:53;;;;;;;20.23;10.97;;;;;;;;;;10279183;28;20687;-80
2023/05/09 02:34:55;;;;;;;25.90;13.27;;;;;;;;;;10280021;28;20494;-80
2023/05/09 02:39:56;;;;;;;21.40;12.00;;;;;;;;;;10276385;28;20090;-80
2023/05/09 02:44:57;;;;;;;25.23;13.10;;;;;;;;;;10293464;28;20035;-80
2023/05/09 02:50:00;;;;;;;22.20;11.07;;;;;;;;;;10299685;28;20522;-80
2023/05/09 02:55:02;;;;;;;23.27;12.47;;;;;;;;;;10274452;28;20050;-80
2023/05/09 03:00:08;;;;;;;24.17;13.97;;;;;;;;;;10292226;28;20203;-80
2023/05/09 03:05:11;;;;;;;23.67;13.30;;;;;;;;;;10293402;28;20054;-80
2023/05/09 03:10:12;;;;;;;23.43;13.27;;;;;;;;;;10282456;28;20522;-80
2023/05/09 03:15:13;;;;;;;22.60;13.00;;;;;;;;;;10290801;28;20050;-80
2023/05/09 03:20:15;;;;;;;27.90;12.40;;;;;;;;;;10291488;28;20033;-81
2023/05/09 03:25:16;;;;;;;28.20;13.83;;;;;;;;;;10270845;28;20101;-82
2023/05/09 03:30:17;;;;;;;22.57;12.87;;;;;;;;;;10292138;28;20078;-82
2023/05/09 03:35:18;;;;;;;19.73;11.63;;;;;;;;;;10292532;28;20034;-81
2023/05/09 03:40:19;;;;;;;20.83;11.47;;;;;;;;;;10292507;28;20889;-80
2023/05/09 03:45:20;;;;;;;18.67;11.00;;;;;;;;;;10279873;28;20666;-80
2023/05/09 03:50:24;;;;;;;20.07;11.20;;;;;;;;;;10292099;28;20506;-80
2023/05/09 03:55:25;;;;;;;22.17;11.97;;;;;;;;;;10285741;28;20042;-80
2023/05/09 04:00:26;;;;;;;23.53;13.37;;;;;;;;;;10284641;28;20054;-81
2023/05/09 04:05:32;;;;;;;21.97;13.30;;;;;;;;;;10286162;28;20015;-81
2023/05/09 04:10:33;;;;;;;22.23;12.57;;;;;;;;;;10285165;28;20023;-79
2023/05/09 04:15:34;;;;;;;23.57;13.60;;;;;;;;;;10284764;28;20077;-82
2023/05/09 04:20:35;;;;;;;23.40;13.20;;;;;;;;;;10284953;28;20046;-80
2023/05/09 04:25:36;;;;;;;23.23;12.97;;;;;;;;;;10280003;28;20432;-82
2023/05/09 04:30:37;;;;;;;25.63;12.47;;;;;;;;;;10282700;28;20027;-82
2023/05/09 04:35:38;;;;;;;26.33;13.87;;;;;;;;;;10281022;28;20031;-82
2023/05/09 04:40:41;;;;;;;21.73;13.40;;;;;;;;;;10259997;28;20043;-82
2023/05/09 04:45:46;;;;;;;23.47;12.87;;;;;;;;;;10272647;28;20022;-82
2023/05/09 04:50:49;;;;;;;23.27;13.47;;;;;;;;;;10274498;28;20038;-83
2023/05/09 04:55:50;;;;;;;24.20;14.07;;;;;;;;;;10288966;28;20038;-81
2023/05/09 05:00:52;;;;;;;23.63;12.13;;;;;;;;;;10282767;28;20054;-82
2023/05/09 05:05:53;;;;;;;19.83;11.17;;;;;;;;;;10284694;28;20035;-83
2023/05/09 05:10:54;;;;;;;19.37;10.80;;;;;;;;;;10283607;28;20049;-82
2023/05/09 05:15:55;;;;;;;24.90;12.07;;;;;;;;;;10281986;28;20438;-79
2023/05/09 05:20:56;;;;;;;22.93;12.40;;;;;;;;;;10282804;28;20027;-81
2023/05/09 05:25:57;;;;;;;16.40;9.50;;;;;;;;;;10264383;28;20037;-82
2023/05/09 05:31:00;;;;;;;19.27;10.40;;;;;;;;;;10282162;28;20034;-82
2023/05/09 05:36:03;;;;;;;13.67;8.30;;;;;;;;;;10282294;28;20403;-82
2023/05/09 05:41:04;;;;;;;13.07;8.00;;;;;;;;;;10281401;28;20041;-82
2023/05/09 05:46:07;;;;;;;14.67;8.27;;;;;;;;;;10281208;28;20061;-80
2023/05/09 05:51:08;;;;;;;24.73;8.73;;;;;;;;;;10280485;28;20089;-82
2023/05/09 05:56:09;;;;;;;15.33;7.53;;;;;;;;;;10277221;28;20434;-83
2023/05/09 06:01:10;;;;;;;16.70;9.30;;;;;;;;;;10281337;28;20047;-81
2023/05/09 06:06:11;;;;;;;28.17;12.87;;;;;;;;;;10281933;28;20041;-82
2023/05/09 06:11:12;;;;;;;23.20;11.23;;;;;;;;;;10281777;28;20033;-80
2023/05/09 06:16:13;;;;;;;15.93;6.53;;;;;;;;;;10263823;28;20061;-81
2023/05/09 06:21:14;;;;;;;24.33;11.53;;;;;;;;;;10281788;28;20027;-82
2023/05/09 06:26:15;;;;;;;18.45;7.38;;;;;;;;;;10280936;28;20042;-82
2023/05/09 06:31:16;;;;;;;30.97;12.00;;;;;;;;;;10263906;28;20030;-82
2023/05/09 06:36:17;;;;;;;18.02;9.07;;;;;;;;;;10281261;28;20041;-81
2023/05/09 06:41:18;;;;;;;18.58;8.13;;;;;;;;;;10280264;28;20029;-81
2023/05/09 06:46:19;;;;;;;13.65;6.43;;;;;;;;;;10281411;28;20043;-81
2023/05/09 06:51:20;;;;;;;13.50;6.85;;;;;;;;;;10281051;28;20394;-81
2023/05/09 06:56:21;;;;;;;11.00;6.18;;;;;;;;;;10263066;28;20050;-81
2023/05/09 07:01:22;;;;;;;15.35;7.10;;;;;;;;;;10279933;28;20499;-80
2023/05/09 07:06:23;;;;;;;13.50;7.80;;;;;;;;;;10280806;28;20037;-83
2023/05/09 07:11:25;;;;;;;12.98;5.93;;;;;;;;;;10280435;28;20027;-81
2023/05/09 07:16:28;;;;;;;13.65;6.22;;;;;;;;;;10280211;28;20078;-80
2023/05/09 07:21:29;;;;;;;10.13;6.38;;;;;;;;;;10280373;28;20502;-82
2023/05/09 07:26:30;;;;;;;14.65;6.35;;;;;;;;;;10280045;28;20034;-80
2023/05/09 07:31:31;;;;;;;10.23;5.90;;;;;;;;;;10286955;28;20092;-81
2023/05/09 07:36:32;;;;;;;12.38;5.75;;;;;;;;;;10287994;28;20054;-82
2023/05/09 07:41:33;;;;;;;9.65;6.00;;;;;;;;;;10287171;28;20037;-81
2023/05/09 07:46:36;;;;;;;9.35;5.40;;;;;;;;;;10287798;28;20033;-81
2023/05/09 07:51:37;;;;;;;12.60;5.82;;;;;;;;;;10287017;28;20026;-81
2023/05/09 07:56:38;;;;;;;10.75;5.43;;;;;;;;;;10269408;28;20047;-80
2023/05/09 08:01:39;;;;;;;9.43;5.88;;;;;;;;;;10279135;28;20043;-81
2023/05/09 08:06:40;;;;;;;13.75;8.00;;;;;;;;;;10279383;28;20368;-81
2023/05/09 08:11:41;;;;;;;16.15;6.47;;;;;;;;;;10286957;28;20102;-81
2023/05/09 08:16:42;;;;;;;13.32;5.30;;;;;;;;;;10285737;28;20394;-81
2023/05/09 08:21:43;;;;;;;12.63;5.30;;;;;;;;;;10285665;28;20050;-80
2023/05/09 08:26:44;;;;;;;9.05;5.13;;;;;;;;;;10285145;28;20640;-81
2023/05/09 08:31:45;;;;;;;10.25;5.35;;;;;;;;;;10282443;28;20109;-81
2023/05/09 08:36:47;;;;;;;10.10;5.15;;;;;;;;;;10283736;28;20073;-85
2023/05/09 08:41:48;;;;;;;9.65;4.88;;;;;;;;;;10282283;28;20034;-81
2023/05/09 08:46:50;;;;;;;15.07;5.50;;;;;;;;;;10266273;28;20419;-80
2023/05/09 08:51:51;;;;;;;9.88;4.82;;;;;;;;;;10285047;28;20105;-83
2023/05/09 08:56:53;;;;;;;13.70;6.03;;;;;;;;;;10282731;28;20043;-80
2023/05/09 09:01:54;;;;;;;11.00;5.57;;;;;;;;;;10282420;28;20175;-82
2023/05/09 09:06:55;;;;;;;10.10;5.22;;;;;;;;;;10283395;28;20035;-82
2023/05/09 09:11:56;;;;;;;9.30;5.20;;;;;;;;;;10282807;28;20035;-82
2023/05/09 09:16:57;;;;;;;9.35;5.55;;;;;;;;;;10282103;28;20057;-82
2023/05/09 09:21:59;;;;;;;11.43;5.50;;;;;;;;;;10282790;28;20039;-81
2023/05/09 09:27:05;;;;;;;7.40;4.90;;;;;;;;;;10283077;28;20046;-82
2023/05/09 09:32:06;;;;;;;8.55;4.60;;;;;;;;;;10281800;28;20113;-81
2023/05/09 09:37:07;;;;;;;9.00;5.75;;;;;;;;;;10281862;28;20065;-79
2023/05/09 09:42:11;;;;;;;10.82;5.13;;;;;;;;;;10281691;28;20025;-81
2023/05/09 09:47:12;;;;;;;7.72;4.30;;;;;;;;;;10275781;28;20383;-80
2023/05/09 09:52:21;;;;;;;11.60;5.85;;;;;;;;;;10280905;28;20034;-80
2023/05/09 09:57:34;;;;;;;10.45;5.00;;;;;;;;;;10263730;28;20117;-79
2023/05/09 10:02:35;;;;;;;7.45;4.68;;;;;;;;;;10281157;28;20179;-79
2023/05/09 10:07:36;;;;;;;10.50;5.07;;;;;;;;;;10280456;28;20163;-80
2023/05/09 10:12:37;;;;;;;10.65;4.93;;;;;;;;;;10281457;28;20035;-78
2023/05/09 10:17:38;;;;;;;7.80;4.18;;;;;;;;;;10280497;28;20117;-79
2023/05/09 10:22:39;;;;;;;8.18;3.80;;;;;;;;;;10282359;28;20030;-78
2023/05/09 10:27:41;;;;;;;12.18;4.65;;;;;;;;;;10280624;28;20034;-79
2023/05/09 10:32:42;;;;;;;6.95;3.97;;;;;;;;;;10279997;28;20027;-79
2023/05/09 10:37:44;;;;;;;6.60;4.28;;;;;;;;;;10281124;28;20050;-78
2023/05/09 10:42:47;;;;;;;6.20;3.88;;;;;;;;;;10280688;28;20131;-79
2023/05/09 10:47:49;;;;;;;6.57;3.17;;;;;;;;;;10280160;28;20763;-79
2023/05/09 10:53:16;;;;;;;8.48;3.75;;;;;;;;;;10279360;28;20395;-79
2023/05/09 10:58:32;;;;;;;10.52;5.00;;;;;;;;;;10274313;28;20404;-79
2023/05/09 11:03:52;;;;;;;5.40;3.58;;;;;;;;;;10245020;28;20414;-79
2023/05/09 11:08:53;;;;;;;8.43;5.25;;;;;;;;;;10248843;29;20197;-77
2023/05/09 11:13:56;;;;;;;9.90;4.90;;;;;;;;;;10249195;28;20046;-80
2023/05/09 11:18:57;;;;;;;5.38;3.40;;;;;;;;;;10262307;28;20019;-79
2023/05/09 11:23:58;;;;;;;24.80;12.63;;;;;;;;;;10248973;28;20038;-78
2023/05/09 11:29:01;;;;;;;11.30;6.38;;;;;;;;;;10251135;28;20102;-79
2023/05/09 11:34:05;;;;;;;17.67;6.45;;;;;;;;;;10271548;28;20093;-80
2023/05/09 11:39:07;;;;;;;7.03;3.00;;;;;;;;;;10256428;28;20539;-80
2023/05/09 11:44:15;;;;;;;7.72;3.83;;;;;;;;;;10248526;28;20030;-81
2023/05/09 11:49:18;;;;;;;20.08;8.70;;;;;;;;;;10253126;28;20360;-80
2023/05/09 11:54:19;;;;;;;35.65;14.52;;;;;;;;;;10246573;28;20097;-79
2023/05/09 11:59:20;;;;;;;28.35;20.02;;;;;;;;;;10246682;28;20077;-80
2023/05/09 12:04:21;;;;;;;17.90;7.80;;;;;;;;;;10238669;29;20042;-79
2023/05/09 12:09:23;;;;;;;17.65;8.02;;;;;;;;;;10237315;29;20471;-81
2023/05/09 12:14:33;;;;;;;28.70;13.48;;;;;;;;;;10243778;28;20434;-79
2023/05/09 12:19:34;;;;;;;11.82;6.28;;;;;;;;;;10241613;29;20046;-79
2023/05/09 12:24:36;;;;;;;8.90;5.10;;;;;;;;;;10241479;29;20041;-80
2023/05/09 12:29:39;;;;;;;4.80;3.17;;;;;;;;;;10214961;29;20039;-79
2023/05/09 12:34:40;;;;;;;5.93;3.50;;;;;;;;;;10241790;29;20046;-80
2023/05/09 12:39:41;;;;;;;10.55;7.07;;;;;;;;;;10244193;29;20034;-82
2023/05/09 12:44:47;;;;;;;11.70;6.32;;;;;;;;;;10245463;29;20038;-80
2023/05/09 12:49:49;;;;;;;5.70;3.83;;;;;;;;;;10254254;28;20035;-79
2023/05/09 12:54:52;;;;;;;3.85;2.55;;;;;;;;;;10248226;28;20403;-80
2023/05/09 12:59:58;;;;;;;4.30;2.45;;;;;;;;;;10269965;28;20057;-80
2023/05/09 13:05:05;;;;;;;11.35;6.55;;;;;;;;;;10283999;28;20030;-79
2023/05/09 13:10:22;;;;;;;31.10;16.63;;;;;;;;;;10282651;28;20031;-79
2023/05/09 13:15:25;;;;;;;13.80;7.65;;;;;;;;;;10282274;28;20046;-78
2023/05/09 13:20:26;;;;;;;9.43;4.88;;;;;;;;;;10282437;28;20035;-79
2023/05/09 13:25:27;;;;;;;6.50;4.78;;;;;;;;;;10265022;28;20097;-79
2023/05/09 13:30:28;;;;;;;23.30;12.30;;;;;;;;;;10278803;28;20545;-77
2023/05/09 13:35:29;;;;;;;29.20;15.50;;;;;;;;;;10282567;28;20038;-80
2023/05/09 13:40:30;;;;;;;21.27;9.27;;;;;;;;;;10284457;28;20513;-79
2023/05/09 13:45:31;;;;;;;12.50;5.65;;;;;;;;;;10283600;28;20030;-80
2023/05/09 13:50:33;;;;;;;17.83;9.93;;;;;;;;;;10281062;28;20183;-79
2023/05/09 13:55:34;;;;;;;19.50;11.65;;;;;;;;;;10273592;28;20573;-80
2023/05/09 14:00:35;;;;;;;11.57;5.03;;;;;;;;;;10277831;28;20085;-80
2023/05/09 14:05:36;;;;;;;7.70;4.50;;;;;;;;;;10281093;28;20041;-79
2023/05/09 14:10:37;;;;;;;9.38;4.97;;;;;;;;;;10280899;28;20546;-80
2023/05/09 14:15:39;;;;;;;3.75;2.95;;;;;;;;;;10277367;28;20046;-82
2023/05/09 14:20:41;;;;;;;7.60;5.15;;;;;;;;;;10280008;28;20549;-79
2023/05/09 14:25:42;;;;;;;5.38;3.40;;;;;;;;;;10281315;28;20035;-80
2023/05/09 14:30:43;;;;;;;8.48;4.43;;;;;;;;;;10280233;28;20070;-80
2023/05/09 14:35:44;;;;;;;10.88;5.93;;;;;;;;;;10281906;28;20525;-80
2023/05/09 14:40:45;;;;;;;8.63;4.90;;;;;;;;;;10286272;28;20027;-80
2023/05/09 14:45:46;;;;;;;6.25;3.05;;;;;;;;;;10278189;28;20058;-80
2023/05/09 14:50:48;;;;;;;5.53;3.85;;;;;;;;;;10261995;28;20039;-81
2023/05/09 14:55:50;;;;;;;14.38;9.13;;;;;;;;;;10280298;28;20442;-80
2023/05/09 15:00:52;;;;;;;6.80;4.72;;;;;;;;;;10277546;28;20043;-79
2023/05/09 15:05:53;;;;;;;5.60;2.63;;;;;;;;;;10279817;28;20046;-80
2023/05/09 15:10:55;;;;;;;9.98;5.47;;;;;;;;;;10267683;28;20046;-79
2023/05/09 15:15:56;;;;;;;7.15;3.70;;;;;;;;;;10276806;28;20035;-80
2023/05/09 15:20:57;;;;;;;6.22;3.35;;;;;;;;;;10261617;28;20386;-79
2023/05/09 15:25:58;;;;;;;5.70;3.60;;;;;;;;;;10280303;28;20031;-80
2023/05/09 15:30:59;;;;;;;7.80;3.35;;;;;;;;;;10262911;28;20399;-80
2023/05/09 15:36:00;;;;;;;10.38;5.28;;;;;;;;;;10274194;28;20039;-80
2023/05/09 15:41:01;;;;;;;11.10;5.90;;;;;;;;;;10272076;28;20035;-80
2023/05/09 15:46:02;;;;;;;5.90;3.25;;;;;;;;;;10264937;28;20093;-79
2023/05/09 15:51:04;;;;;;;12.82;6.25;;;;;;;;;;10273714;28;20138;-79
2023/05/09 15:56:05;;;;;;;11.90;6.07;;;;;;;;;;10266327;28;20051;-79
2023/05/09 16:01:07;;;;;;;8.77;4.95;;;;;;;;;;10297652;28;20050;-79
2023/05/09 16:06:07;;;;;;;7.50;3.85;;;;;;;;;;10287857;28;20073;-79
2023/05/09 16:11:09;;;;;;;5.15;3.72;;;;;;;;;;10283096;28;20506;-79
2023/05/09 16:16:10;;;;;;;9.07;4.18;;;;;;;;;;10270774;28;20046;-80
2023/05/09 16:21:11;;;;;;;9.23;4.97;;;;;;;;;;10261226;28;20039;-79
2023/05/09 16:26:12;;;;;;;7.90;4.25;;;;;;;;;;10277045;28;20498;-78
2023/05/09 16:31:13;;;;;;;4.88;3.70;;;;;;;;;;10280837;28;20061;-79
2023/05/09 16:36:14;;;;;;;8.77;3.92;;;;;;;;;;10279431;28;20046;-79
2023/05/09 16:41:15;;;;;;;9.95;5.60;;;;;;;;;;10278028;28;20026;-80
2023/05/09 16:46:16;;;;;;;11.95;5.78;;;;;;;;;;10284582;28;20037;-80
2023/05/09 16:51:17;;;;;;;8.80;5.03;;;;;;;;;;10283395;28;20035;-79
2023/05/09 16:56:18;;;;;;;12.52;5.82;;;;;;;;;;10279474;28;20054;-79
2023/05/09 17:01:19;;;;;;;8.70;5.22;;;;;;;;;;10281512;28;20133;-79
2023/05/09 17:06:20;;;;;;;12.20;6.57;;;;;;;;;;10281563;28;20467;-79
2023/05/09 17:11:21;;;;;;;18.10;7.57;;;;;;;;;;10292713;28;20049;-78
2023/05/09 17:16:22;;;;;;;15.00;7.30;;;;;;;;;;10279719;28;20562;-79
2023/05/09 17:21:23;;;;;;;10.07;5.45;;;;;;;;;;10283545;28;20158;-78
2023/05/09 17:26:24;;;;;;;10.40;5.32;;;;;;;;;;10283044;28;20027;-78
2023/05/09 17:31:25;;;;;;;7.22;4.57;;;;;;;;;;10282758;28;20110;-79
2023/05/09 17:36:26;;;;;;;9.40;5.50;;;;;;;;;;10266803;28;20031;-79
2023/05/09 17:41:28;;;;;;;8.32;4.57;;;;;;;;;;10280047;28;20082;-79
2023/05/09 17:46:28;;;;;;;15.82;8.25;;;;;;;;;;10277411;28;20526;-79
2023/05/09 17:51:31;;;;;;;11.40;5.13;;;;;;;;;;10279505;28;20027;-78
2023/05/09 17:56:32;;;;;;;9.13;3.83;;;;;;;;;;10276592;28;20089;-78
2023/05/09 18:01:33;;;;;;;6.90;4.43;;;;;;;;;;10278655;28;20059;-79
2023/05/09 18:06:35;;;;;;;9.95;4.50;;;;;;;;;;10281122;28;20026;-81
2023/05/09 18:11:37;;;;;;;11.65;4.57;;;;;;;;;;10261657;28;20455;-79
2023/05/09 18:16:37;;;;;;;9.00;4.90;;;;;;;;;;10280414;28;20129;-79
2023/05/09 18:21:38;;;;;;;11.93;6.22;;;;;;;;;;10281852;28;20129;-80
2023/05/09 18:26:40;;;;;;;14.32;6.47;;;;;;;;;;10280434;28;20034;-78
2023/05/09 18:31:41;;;;;;;10.07;5.20;;;;;;;;;;10279532;28;20431;-79
2023/05/09 18:36:42;;;;;;;9.93;5.78;;;;;;;;;;10280605;28;20090;-80
2023/05/09 18:41:43;;;;;;;15.77;7.82;;;;;;;;;;10279233;28;20447;-79
2023/05/09 18:46:44;;;;;;;12.50;5.72;;;;;;;;;;10275612;28;20049;-78
2023/05/09 18:51:45;;;;;;;13.48;6.88;;;;;;;;;;10262665;28;20034;-78
2023/05/09 18:56:46;;;;;;;15.45;7.22;;;;;;;;;;10279725;28;20050;-78
2023/05/09 19:01:47;;;;;;;17.85;7.90;;;;;;;;;;10245491;28;20115;-78
2023/05/09 19:06:48;;;;;;;15.85;8.10;;;;;;;;;;10239964;29;20023;-79
2023/05/09 19:11:49;;;;;;;19.05;8.68;;;;;;;;;;10240919;29;20702;-78
2023/05/09 19:16:50;;;;;;;17.60;8.02;;;;;;;;;;10231798;29;20054;-76
2023/05/09 19:21:51;;;;;;;16.75;8.18;;;;;;;;;;10229341;29;20043;-77
2023/05/09 19:26:52;;;;;;;18.30;7.55;;;;;;;;;;10225047;28;20503;-78
2023/05/09 19:31:53;;;;;;;14.80;8.43;;;;;;;;;;10246609;28;20083;-78
2023/05/09 19:36:54;;;;;;;18.80;8.82;;;;;;;;;;10247552;29;20054;-78
2023/05/09 19:41:55;;;;;;;17.20;7.05;;;;;;;;;;10246374;29;20387;-79
2023/05/09 19:46:57;;;;;;;12.77;6.57;;;;;;;;;;10245834;29;20035;-78
2023/05/09 19:51:58;;;;;;;12.60;7.20;;;;;;;;;;10246646;29;20027;-78
2023/05/09 19:56:59;;;;;;;13.73;6.45;;;;;;;;;;10245893;28;20462;-79
2023/05/09 20:02:00;;;;;;;10.43;5.28;;;;;;;;;;10245595;28;20075;-77
2023/05/09 20:07:01;;;;;;;14.65;6.45;;;;;;;;;;10245545;29;20030;-78
2023/05/09 20:12:02;;;;;;;14.30;6.57;;;;;;;;;;10244374;29;20376;-80
2023/05/09 20:17:04;;;;;;;13.30;5.75;;;;;;;;;;10245287;28;20473;-78
2023/05/09 20:22:05;;;;;;;15.35;6.47;;;;;;;;;;10246442;29;20027;-78
2023/05/09 20:27:06;;;;;;;10.02;5.40;;;;;;;;;;10236490;28;20080;-78
2023/05/09 20:32:07;;;;;;;12.25;5.65;;;;;;;;;;10243225;28;20039;-78
2023/05/09 20:37:08;;;;;;;14.45;6.95;;;;;;;;;;10238261;28;20046;-78
2023/05/09 20:42:09;;;;;;;9.35;5.70;;;;;;;;;;10243835;29;20384;-79
2023/05/09 20:47:10;;;;;;;10.27;6.32;;;;;;;;;;10244371;28;20036;-79
2023/05/09 20:52:11;;;;;;;11.80;5.97;;;;;;;;;;10244582;29;20032;-79
2023/05/09 20:57:12;;;;;;;10.75;5.78;;;;;;;;;;10238912;28;20796;-78
2023/05/09 21:02:13;;;;;;;13.25;6.20;;;;;;;;;;10282889;28;20117;-77
2023/05/09 21:07:17;;;;;;;12.27;6.15;;;;;;;;;;10284170;28;20027;-79
2023/05/09 21:12:19;;;;;;;11.05;6.00;;;;;;;;;;10295477;28;20034;-78
2023/05/09 21:17:20;;;;;;;10.98;6.32;;;;;;;;;;10283325;28;20042;-80
2023/05/09 21:22:21;;;;;;;11.30;6.05;;;;;;;;;;10283162;28;20034;-78
2023/05/09 21:27:22;;;;;;;10.52;5.70;;;;;;;;;;10283523;28;20031;-79
2023/05/09 21:32:23;;;;;;;9.93;5.70;;;;;;;;;;10281536;28;20061;-79
2023/05/09 21:37:24;;;;;;;14.30;7.18;;;;;;;;;;10282900;28;20038;-79
2023/05/09 21:42:25;;;;;;;14.23;6.40;;;;;;;;;;10282192;28;20403;-78
2023/05/09 21:47:26;;;;;;;11.60;5.70;;;;;;;;;;10280437;28;20434;-78
2023/05/09 21:52:27;;;;;;;14.35;6.43;;;;;;;;;;10282613;28;20391;-79
2023/05/09 21:57:28;;;;;;;11.32;5.45;;;;;;;;;;10282022;28;20848;-79
2023/05/09 22:02:29;;;;;;;13.10;6.32;;;;;;;;;;10280975;28;20054;-78
2023/05/09 22:07:30;;;;;;;9.77;5.70;;;;;;;;;;10282606;28;20668;-78
2023/05/09 22:12:31;;;;;;;12.88;6.10;;;;;;;;;;10280844;28;20038;-79
2023/05/09 22:17:34;;;;;;;11.33;6.13;;;;;;;;;;10280794;28;20039;-80
2023/05/09 22:22:35;;;;;;;11.17;5.33;;;;;;;;;;10281426;28;20114;-79
2023/05/09 22:27:36;;;;;;;11.20;5.20;;;;;;;;;;10281015;28;20061;-79
2023/05/09 22:32:37;;;;;;;11.07;5.70;;;;;;;;;;10280296;28;20035;-79
2023/05/09 22:37:38;;;;;;;13.90;6.10;;;;;;;;;;10281082;28;20034;-79
2023/05/09 22:42:39;;;;;;;9.23;5.53;;;;;;;;;;10292455;28;20394;-79
2023/05/09 22:47:40;;;;;;;12.07;6.20;;;;;;;;;;10279443;28;20027;-79
2023/05/09 22:52:41;;;;;;;15.30;6.43;;;;;;;;;;10281220;28;20031;-79
2023/05/09 22:57:42;;;;;;;10.73;5.70;;;;;;;;;;10264719;28;20046;-79
2023/05/09 23:02:43;;;;;;;10.67;5.93;;;;;;;;;;10288943;28;20030;-79
2023/05/09 23:07:44;;;;;;;13.47;6.30;;;;;;;;;;10289166;28;20039;-80
2023/05/09 23:12:45;;;;;;;12.57;7.00;;;;;;;;;;10287441;28;20045;-81
2023/05/09 23:17:46;;;;;;;11.30;5.73;;;;;;;;;;10287745;28;20089;-79
2023/05/09 23:22:47;;;;;;;11.27;5.80;;;;;;;;;;10288891;28;20534;-78
2023/05/09 23:27:48;;;;;;;9.50;5.60;;;;;;;;;;10296950;28;20035;-80
2023/05/09 23:32:49;;;;;;;12.60;6.30;;;;;;;;;;10286540;28;20042;-78
2023/05/09 23:37:50;;;;;;;10.33;5.23;;;;;;;;;;10287080;28;20129;-79
2023/05/09 23:42:51;;;;;;;8.70;5.17;;;;;;;;;;10287408;28;20039;-78
2023/05/09 23:47:52;;;;;;;10.47;5.53;;;;;;;;;;10286893;28;20027;-79
2023/05/09 23:52:53;;;;;;;8.73;5.87;;;;;;;;;;10287420;28;20057;-78
2023/05/09 23:57:54;;;;;;;9.90;5.40;;;;;;;;;;10285230;28;20062;-79
